Time;durP1;ratioP1;P1;durP2;ratioP2;P2;SDS_P1;SDS_P2;PMS_P1;PMS_P2;Temp;Humidity;BMP_temperature;BMP_pressure;BME280_temperature;BME280_humidity;BME280_pressure;Samples;Min_cycle;Max_cycle;Signal;HPM_P1;HPM_P2
2023/10/10 00:01:04;;;;;;;17.93;6.97;;;;;;;22.77;74.27;96720.00;5106061;28;20076;-82
2023/10/10 00:03:36;;;;;;;23.87;8.30;;;;;;;22.84;75.69;96722.59;5095971;28;20133;-82
2023/10/10 00:06:08;;;;;;;21.23;8.23;;;;;;;22.88;74.56;96718.44;5102483;28;20032;-82
2023/10/10 00:08:35;;;;;;;29.30;12.07;;;;;;;22.87;74.82;96715.94;5097120;28;20612;-82
2023/10/10 00:11:16;;;;;;;22.77;10.63;;;;;;;22.59;77.61;96720.81;5088760;28;20032;-82
2023/10/10 00:13:42;;;;;;;23.10;8.87;;;;;;;22.07;81.91;96724.84;5112711;27;20032;-82
2023/10/10 00:19:17;;;;;;;18.33;8.23;;;;;;;22.48;77.70;96716.19;5106487;28;20019;-82
2023/10/10 00:21:45;;;;;;;18.77;7.33;;;;;;;22.13;80.25;96724.78;5100935;28;20040;-82
2023/10/10 00:24:12;;;;;;;23.80;7.73;;;;;;;22.11;82.25;96721.47;5096888;27;20499;-82
2023/10/10 00:26:43;;;;;;;16.70;7.27;;;;;;;22.01;83.30;96723.84;5091547;28;20466;-82
2023/10/10 00:29:10;;;;;;;25.00;8.10;;;;;;;21.86;87.68;96726.84;5089823;28;20442;-82
2023/10/10 00:31:43;;;;;;;17.27;8.00;;;;;;;21.79;86.22;96723.38;5094328;28;20028;-82
2023/10/10 00:34:09;;;;;;;18.50;7.32;;;;;;;21.77;87.28;96725.47;5092131;28;20058;-82
2023/10/10 00:36:36;;;;;;;20.47;7.47;;;;;;;21.85;87.48;96725.19;5108430;28;20114;-83
2023/10/10 00:39:22;;;;;;;17.87;7.57;;;;;;;21.87;87.56;96722.31;5084541;28;20043;-83
2023/10/10 00:41:52;;;;;;;23.60;8.33;;;;;;;21.60;89.12;96721.72;5086388;28;20051;-82
2023/10/10 00:44:18;;;;;;;19.27;6.93;;;;;;;21.75;88.55;96714.16;5086009;28;20517;-82
2023/10/10 00:46:55;;;;;;;16.23;6.87;;;;;;;21.40;91.92;96716.50;5107524;28;20047;-82
2023/10/10 00:49:25;;;;;;;17.07;7.93;;;;;;;21.41;90.34;96716.25;5102728;28;20490;-82
2023/10/10 00:51:53;;;;;;;19.93;7.10;;;;;;;21.85;87.55;96714.50;5090648;28;20059;-82
2023/10/10 00:56:59;;;;;;;16.40;6.90;;;;;;;21.86;85.63;96716.16;5105327;28;20031;-82
2023/10/10 00:59:36;;;;;;;22.60;7.70;;;;;;;21.93;84.29;96715.25;5086721;28;20567;-83
2023/10/10 01:02:05;;;;;;;18.03;7.27;;;;;;;22.23;82.25;96710.91;5092063;28;20075;-82
2023/10/10 01:04:48;;;;;;;18.27;7.07;;;;;;;22.11;83.42;96708.09;5092173;28;20092;-83
2023/10/10 01:07:18;;;;;;;22.92;6.65;;;;;;;21.91;86.81;96709.31;5102559;28;20386;-83
2023/10/10 01:09:56;;;;;;;18.87;6.27;;;;;;;22.09;84.07;96710.16;5092214;28;20035;-83
2023/10/10 01:12:24;;;;;;;20.90;7.00;;;;;;;22.36;82.59;96700.03;5092755;28;20118;-82
2023/10/10 01:14:57;;;;;;;22.87;6.70;;;;;;;22.40;79.91;96688.88;5102039;28;20024;-83
2023/10/10 01:17:30;;;;;;;23.60;7.47;;;;;;;22.60;79.79;96689.47;5091129;28;20028;-82
2023/10/10 01:20:52;;;;;;;18.45;6.72;;;;;;;22.20;82.79;96697.94;5107277;28;20031;-82
2023/10/10 01:22:56;;;;;;;29.40;7.63;;;;;;;21.95;84.56;96702.47;5100284;28;20434;-82
2023/10/10 01:25:41;;;;;;;16.03;6.57;;;;;;;21.97;84.43;96697.72;5088759;28;20039;-82
2023/10/10 01:33:22;;;;;;;19.80;6.57;;;;;;;22.05;85.13;96697.44;5102111;28;20023;-83
2023/10/10 01:36:03;;;;;;;17.97;5.70;;;;;;;22.11;84.63;96680.50;5086556;28;20060;-82
2023/10/10 01:39:07;;;;;;;15.87;5.37;;;;;;;22.21;84.03;96680.81;5101790;28;20092;-82
2023/10/10 01:41:34;;;;;;;16.67;6.10;;;;;;;22.12;83.93;96676.75;5082903;28;20043;-82
2023/10/10 01:44:12;;;;;;;23.43;6.53;;;;;;;22.01;84.40;96688.22;5106244;28;20035;-82
2023/10/10 01:46:41;;;;;;;17.90;6.80;;;;;;;21.96;84.92;96685.34;5090464;28;20341;-82
2023/10/10 01:49:53;;;;;;;16.53;5.93;;;;;;;22.00;85.09;96684.72;5084895;28;20028;-81
2023/10/10 01:51:58;;;;;;;17.50;5.83;;;;;;;21.79;88.24;96679.75;5093106;28;20402;-83
2023/10/10 01:54:41;;;;;;;23.87;6.93;;;;;;;21.82;85.51;96685.47;5107018;28;20034;-81
2023/10/10 01:57:09;;;;;;;22.42;6.80;;;;;;;21.72;86.86;96677.13;5087399;28;20077;-83
2023/10/10 01:59:37;;;;;;;15.40;5.53;;;;;;;21.56;89.72;96678.50;5086926;28;20028;-83
2023/10/10 02:02:10;;;;;;;21.10;6.43;;;;;;;21.54;90.16;96685.09;5095469;28;20031;-83
2023/10/10 02:04:36;;;;;;;21.10;5.65;;;;;;;21.49;90.75;96683.06;5090881;28;20134;-82
2023/10/10 02:07:06;;;;;;;16.37;5.97;;;;;;;21.39;91.22;96675.53;5105431;28;20474;-82
2023/10/10 02:09:40;;;;;;;17.40;6.20;;;;;;;21.37;91.73;96674.94;5092244;28;20500;-83
2023/10/10 02:12:15;;;;;;;20.80;6.33;;;;;;;21.42;92.52;96672.41;5089903;28;20040;-82
2023/10/10 02:14:43;;;;;;;15.13;5.77;;;;;;;21.44;91.96;96674.88;5089603;28;20023;-83
2023/10/10 02:17:20;;;;;;;20.03;5.97;;;;;;;21.54;89.95;96667.19;5106696;28;20023;-82
2023/10/10 02:19:53;;;;;;;15.03;5.40;;;;;;;21.43;90.91;96673.25;5101609;28;20112;-82
2023/10/10 02:30:45;;;;;;;21.37;5.60;;;;;;;20.95;94.36;96671.84;5065615;28;20035;-82
2023/10/10 02:33:24;;;;;;;16.97;6.27;;;;;;;20.84;95.23;96672.53;5107279;28;20394;-82
2023/10/10 02:38:40;;;;;;;26.53;7.03;;;;;;;21.33;91.31;96679.03;5107996;28;20046;-82
2023/10/10 02:46:37;;;;;;;14.23;5.63;;;;;;;21.08;94.19;96680.84;5095404;28;20035;-82
2023/10/10 02:49:30;;;;;;;18.70;6.20;;;;;;;20.99;94.79;96679.44;5098454;28;20396;-82
2023/10/10 02:51:57;;;;;;;20.13;6.37;;;;;;;21.22;93.47;96679.72;5089895;28;20035;-82
2023/10/10 02:56:57;;;;;;;22.07;6.67;;;;;;;21.27;91.33;96679.09;5104662;28;20031;-82
2023/10/10 02:59:38;;;;;;;19.83;6.60;;;;;;;21.21;91.46;96678.09;5099830;28;20024;-82
2023/10/10 03:02:18;;;;;;;22.83;6.20;;;;;;;21.03;92.71;96680.66;5087405;28;20262;-82
2023/10/10 03:05:05;;;;;;;21.73;6.63;;;;;;;20.81;93.99;96670.28;5082813;28;20027;-82
2023/10/10 03:07:31;;;;;;;19.13;6.60;;;;;;;20.92;95.25;96676.81;5101224;28;20035;-82
2023/10/10 03:12:38;;;;;;;21.53;6.20;;;;;;;20.86;95.29;96678.50;5095880;28;20125;-82
2023/10/10 03:15:27;;;;;;;18.80;6.03;;;;;;;20.81;95.14;96682.81;5087173;28;20034;-82
2023/10/10 03:18:18;;;;;;;20.93;6.17;;;;;;;20.84;93.52;96675.19;5090802;28;20024;-82
2023/10/10 03:23:41;;;;;;;19.40;6.23;;;;;;;20.30;99.41;96679.06;5104628;28;20088;-82
2023/10/10 03:26:07;;;;;;;22.63;6.27;;;;;;;20.20;99.16;96676.03;5091739;28;20111;-82
2023/10/10 03:28:47;;;;;;;20.00;6.60;;;;;;;20.27;100.00;96679.50;5086346;28;20031;-82
2023/10/10 05:23:50;;;;;;;21.60;6.13;;;;;;;19.94;100.00;96691.03;5105030;28;20023;-83
2023/10/10 05:26:19;;;;;;;16.10;6.20;;;;;;;19.95;100.00;96692.69;5089590;28;20020;-83
2023/10/10 05:28:46;;;;;;;20.97;6.40;;;;;;;20.02;100.00;96695.38;5078055;28;20028;-83
2023/10/10 05:31:11;;;;;;;16.57;5.37;;;;;;;19.88;100.00;96691.03;5099667;27;20615;-82
2023/10/10 05:33:37;;;;;;;20.37;6.43;;;;;;;19.59;100.00;96687.75;5111393;28;20102;-83
2023/10/10 05:36:06;;;;;;;12.50;5.13;;;;;;;19.70;100.00;96686.34;5095348;28;20363;-85
2023/10/10 05:38:39;;;;;;;15.37;5.60;;;;;;;19.60;100.00;96686.72;5090568;28;20079;-83
2023/10/10 05:41:06;;;;;;;20.75;5.53;;;;;;;19.66;100.00;96680.59;5099747;28;20585;-84
2023/10/10 05:43:35;;;;;;;25.20;6.83;;;;;;;19.27;100.00;96684.00;5101399;28;20023;-83
2023/10/10 05:46:04;;;;;;;18.17;5.03;;;;;;;19.41;100.00;96675.00;5088321;28;20035;-84
2023/10/10 05:48:31;;;;;;;19.77;6.37;;;;;;;19.52;100.00;96677.06;5091409;27;20486;-83
2023/10/10 05:50:58;;;;;;;17.53;5.70;;;;;;;19.29;100.00;96693.47;5094483;28;20378;-84
2023/10/10 05:53:24;;;;;;;19.20;6.23;;;;;;;19.47;100.00;96684.84;5083150;28;20111;-84
2023/10/10 05:55:54;;;;;;;18.13;7.00;;;;;;;19.65;100.00;96680.78;5089785;28;20047;-86
2023/10/10 05:58:20;;;;;;;19.17;6.70;;;;;;;20.55;100.00;96681.06;5092881;28;20176;-86
2023/10/10 06:00:48;;;;;;;22.37;6.87;;;;;;;20.93;100.00;96692.66;5097459;28;20031;-85
2023/10/10 06:03:18;;;;;;;18.67;7.10;;;;;;;21.15;100.00;96694.97;5087706;28;20028;-87
2023/10/10 06:05:44;;;;;;;20.97;5.60;;;;;;;20.83;100.00;96694.13;5102122;28;20470;-87
2023/10/10 06:08:10;;;;;;;22.63;6.60;;;;;;;20.56;100.00;96701.44;5094601;28;20023;-87
2023/10/10 06:10:36;;;;;;;18.60;5.83;;;;;;;20.77;100.00;96698.47;5095360;28;20031;-87
2023/10/10 06:13:06;;;;;;;19.80;6.00;;;;;;;21.06;100.00;96701.59;5094638;28;20023;-87
2023/10/10 06:15:34;;;;;;;19.83;6.80;;;;;;;21.30;96.96;96694.72;5083467;28;20024;-86
2023/10/10 06:18:12;;;;;;;17.77;5.93;;;;;;;21.87;96.27;96701.72;5086268;28;20118;-87
2023/10/10 06:20:42;;;;;;;19.93;6.47;;;;;;;21.60;98.50;96701.09;5098087;28;20034;-87
2023/10/10 06:23:09;;;;;;;19.50;6.47;;;;;;;21.57;95.77;96698.06;5108442;28;20023;-87
2023/10/10 06:25:38;;;;;;;17.67;6.23;;;;;;;22.29;89.62;96699.28;5112077;28;20046;-87
2023/10/10 06:28:18;;;;;;;18.93;6.97;;;;;;;22.65;87.61;96697.66;5089900;28;20073;-87
2023/10/10 06:30:44;;;;;;;19.47;6.13;;;;;;;23.03;84.19;96701.97;5106751;28;20055;-86
2023/10/10 06:33:14;;;;;;;21.43;7.50;;;;;;;23.40;78.94;96700.00;5091381;28;20405;-87
2023/10/10 06:35:40;;;;;;;19.60;6.83;;;;;;;23.83;76.05;96703.50;5109272;28;20870;-84
2023/10/10 06:38:10;;;;;;;15.80;6.47;;;;;;;23.64;78.08;96705.41;5103638;28;20011;-86
2023/10/10 06:40:52;;;;;;;14.07;5.80;;;;;;;24.07;74.98;96705.16;5130295;28;20031;-86
2023/10/10 06:43:19;;;;;;;17.95;6.22;;;;;;;24.49;72.19;96702.38;5107745;28;20114;-86
2023/10/10 06:45:52;;;;;;;16.77;6.15;;;;;;;24.68;71.02;96703.03;5112296;28;20106;-88
2023/10/10 06:48:22;;;;;;;17.23;6.30;;;;;;;24.74;68.66;96706.66;5101602;28;20477;-88
2023/10/10 06:50:49;;;;;;;20.67;5.88;;;;;;;24.68;69.97;96705.72;5090979;28;20043;-88
2023/10/10 06:53:35;;;;;;;21.88;7.00;;;;;;;24.41;73.12;96706.25;5107720;28;20470;-89
2023/10/10 06:56:17;;;;;;;14.27;5.80;;;;;;;24.65;70.12;96716.97;5107287;28;20035;-88
2023/10/10 06:58:57;;;;;;;18.88;6.30;;;;;;;24.89;69.41;96707.78;5109010;28;20034;-89
2023/10/10 07:01:24;;;;;;;16.05;5.68;;;;;;;24.87;66.87;96714.44;5102104;28;20016;-89
2023/10/10 07:03:55;;;;;;;15.82;6.30;;;;;;;25.27;63.68;96709.06;5092214;28;20068;-89
2023/10/10 07:06:21;;;;;;;16.25;6.88;;;;;;;24.77;68.65;96715.06;5114062;28;20073;-89
2023/10/10 07:09:14;;;;;;;21.75;7.47;;;;;;;24.88;69.87;96711.53;5128303;28;20071;-89
2023/10/10 07:11:39;;;;;;;17.58;7.22;;;;;;;25.35;63.35;96708.72;5112017;28;20027;-87
2023/10/10 07:14:08;;;;;;;20.58;7.97;;;;;;;25.21;65.13;96715.41;5092836;28;20035;-88
2023/10/10 07:16:33;;;;;;;20.73;7.78;;;;;;;24.54;65.26;96715.09;5110029;28;20032;-88
2023/10/10 07:19:17;;;;;;;15.95;7.07;;;;;;;25.21;65.45;96712.72;5091823;28;20056;-88
2023/10/10 07:21:43;;;;;;;21.48;7.38;;;;;;;25.18;63.41;96705.13;5110209;28;20024;-88
2023/10/10 07:24:15;;;;;;;19.38;7.10;;;;;;;25.94;60.51;96708.38;5092811;28;20118;-88
2023/10/10 07:26:45;;;;;;;23.23;6.53;;;;;;;26.20;59.77;96714.16;5096818;28;20023;-88
2023/10/10 07:29:27;;;;;;;17.80;6.57;;;;;;;26.13;59.34;96721.63;5098886;28;20020;-87
2023/10/10 07:34:51;;;;;;;29.38;7.15;;;;;;;26.51;56.52;96727.06;5074402;28;20134;-87
2023/10/10 07:37:18;;;;;;;17.30;6.85;;;;;;;25.81;59.46;96722.97;5096551;28;20015;-87
2023/10/10 07:39:57;;;;;;;21.27;6.60;;;;;;;25.96;59.83;96716.22;5091741;28;20027;-86
2023/10/10 07:42:29;;;;;;;20.17;7.05;;;;;;;26.59;58.84;96714.19;5093779;28;20020;-88
2023/10/10 07:44:56;;;;;;;16.05;6.43;;;;;;;26.49;58.54;96721.09;5096986;28;20019;-88
2023/10/10 07:47:32;;;;;;;24.63;6.75;;;;;;;27.43;54.00;96719.25;5094862;28;20027;-88
2023/10/10 07:50:08;;;;;;;21.10;6.38;;;;;;;27.00;54.50;96727.16;5090850;28;20019;-88
2023/10/10 07:52:35;;;;;;;21.70;6.78;;;;;;;27.39;54.30;96724.34;5113552;28;20083;-88
2023/10/10 07:55:04;;;;;;;17.60;5.78;;;;;;;28.01;52.63;96714.16;5097257;28;20081;-88
2023/10/10 07:57:55;;;;;;;15.82;5.88;;;;;;;27.80;52.05;96724.81;5113100;28;20027;-88
2023/10/10 08:00:24;;;;;;;15.07;5.75;;;;;;;27.89;51.70;96725.13;5106781;28;20038;-89
2023/10/10 08:02:49;;;;;;;15.60;6.00;;;;;;;28.61;49.63;96723.78;5105714;28;20076;-89
2023/10/10 08:05:19;;;;;;;19.67;7.82;;;;;;;28.20;51.21;96721.59;5109849;28;20023;-89
2023/10/10 08:07:50;;;;;;;23.48;6.55;;;;;;;27.66;52.43;96723.53;5103272;28;20032;-90
2023/10/10 08:13:28;;;;;;;22.45;7.10;;;;;;;29.02;48.76;96732.13;5104386;28;20085;-87
2023/10/10 08:15:56;;;;;;;21.50;7.53;;;;;;;29.56;46.16;96729.03;5110654;28;20039;-87
2023/10/10 08:21:10;;;;;;;16.50;5.55;;;;;;;31.32;42.16;96729.31;5112788;28;20064;-87
2023/10/10 08:23:42;;;;;;;14.57;5.43;;;;;;;30.97;42.24;96736.56;5095850;28;20012;-88
2023/10/10 08:26:10;;;;;;;14.98;5.82;;;;;;;30.42;40.91;96733.69;5130256;28;20053;-88
2023/10/10 08:28:36;;;;;;;18.58;5.60;;;;;;;31.52;39.49;96734.66;5131795;28;20049;-87
2023/10/10 08:31:01;;;;;;;20.10;5.78;;;;;;;31.70;38.84;96734.03;5128961;28;20031;-88
2023/10/10 08:33:32;;;;;;;16.92;5.07;;;;;;;32.27;37.41;96739.06;5112418;28;20027;-87
2023/10/10 08:35:58;;;;;;;23.83;6.60;;;;;;;31.92;38.55;96740.97;5089247;28;20853;-87
2023/10/10 08:38:24;;;;;;;17.92;5.93;;;;;;;33.16;37.16;96725.88;5109586;28;20046;-88
2023/10/10 08:40:57;;;;;;;23.08;9.38;;;;;;;33.53;35.61;96736.03;5089551;28;20016;-89
2023/10/10 08:43:31;;;;;;;14.45;6.03;;;;;;;34.08;35.36;96745.63;5108493;28;20034;-84
2023/10/10 08:46:05;;;;;;;17.15;5.57;;;;;;;33.55;35.77;96739.28;5093238;28;20055;-86
2023/10/10 08:48:39;;;;;;;16.30;5.63;;;;;;;33.47;35.17;96737.19;5101637;28;20032;-86
2023/10/10 08:51:05;;;;;;;18.10;6.20;;;;;;;33.94;34.05;96746.34;5089819;28;20555;-84
2023/10/10 08:53:39;;;;;;;17.98;6.05;;;;;;;33.44;34.51;96748.69;5092282;28;20040;-83
2023/10/10 08:56:08;;;;;;;14.50;5.78;;;;;;;32.79;35.09;96741.00;5094841;28;20776;-84
2023/10/10 08:58:35;;;;;;;16.17;6.35;;;;;;;33.06;35.41;96736.91;5093719;28;20036;-85
2023/10/10 09:01:02;;;;;;;15.10;5.65;;;;;;;33.74;33.85;96739.28;5092113;28;20180;-84
2023/10/10 09:03:28;;;;;;;17.20;5.75;;;;;;;33.02;34.64;96731.22;5089153;28;20393;-84
2023/10/10 09:05:56;;;;;;;13.35;5.95;;;;;;;32.97;34.45;96728.56;5110528;28;20027;-83
2023/10/10 09:08:28;;;;;;;15.32;5.65;;;;;;;32.98;33.90;96723.94;5097486;28;20020;-83
2023/10/10 09:10:57;;;;;;;15.07;6.40;;;;;;;33.74;33.04;96727.56;5088325;28;20031;-83
2023/10/10 09:13:25;;;;;;;13.10;6.18;;;;;;;33.26;32.73;96724.94;5110692;28;20082;-84
2023/10/10 09:15:55;;;;;;;12.90;5.53;;;;;;;34.19;30.93;96733.41;5103115;28;20024;-83
2023/10/10 09:18:22;;;;;;;13.45;6.25;;;;;;;34.08;31.62;96727.31;5104751;28;20140;-84
2023/10/10 09:20:49;;;;;;;11.30;5.55;;;;;;;33.49;31.57;96724.09;5089841;28;20027;-84
2023/10/10 09:23:24;;;;;;;14.35;6.20;;;;;;;33.94;32.23;96727.25;5110651;28;20027;-85
2023/10/10 09:26:18;;;;;;;14.25;6.20;;;;;;;33.61;31.63;96728.31;5108270;28;20027;-85
2023/10/10 09:28:49;;;;;;;17.60;6.72;;;;;;;33.88;30.73;96733.88;5089496;28;20079;-85
2023/10/10 09:31:26;;;;;;;16.60;6.53;;;;;;;33.12;32.29;96734.94;5111262;28;20119;-85
2023/10/10 09:33:56;;;;;;;16.52;5.78;;;;;;;33.91;30.35;96725.09;5092846;28;20102;-83
2023/10/10 09:36:27;;;;;;;15.40;6.38;;;;;;;34.33;31.15;96736.16;5085834;28;20565;-86
2023/10/10 09:38:54;;;;;;;21.48;7.20;;;;;;;33.66;31.63;96728.22;5102468;28;20048;-88
2023/10/10 09:57:42;;;;;;;19.15;6.63;;;;;;;33.43;32.57;96730.69;5111529;28;20035;-86
2023/10/10 10:00:15;;;;;;;15.95;6.70;;;;;;;32.84;31.85;96734.69;5105731;28;20268;-87
2023/10/10 10:02:49;;;;;;;18.33;8.18;;;;;;;34.41;31.56;96725.38;5092629;28;20020;-86
2023/10/10 10:05:18;;;;;;;15.25;6.40;;;;;;;33.76;30.72;96728.06;5091943;28;20110;-86
2023/10/10 10:08:07;;;;;;;16.63;6.88;;;;;;;33.78;32.39;96729.38;5089955;28;20243;-86
2023/10/10 10:10:35;;;;;;;23.15;7.40;;;;;;;33.69;31.86;96738.53;5116413;28;20213;-86
2023/10/10 10:13:08;;;;;;;14.52;6.43;;;;;;;33.04;32.28;96734.47;5112871;28;20091;-85
2023/10/10 10:15:50;;;;;;;19.52;7.00;;;;;;;33.07;31.80;96744.78;5117789;28;20030;-85
2023/10/10 10:18:27;;;;;;;22.75;7.22;;;;;;;32.57;32.56;96743.44;5092683;28;20016;-86
2023/10/10 10:21:16;;;;;;;21.73;8.02;;;;;;;33.34;30.78;96735.19;5093888;28;20051;-86
2023/10/10 10:24:15;;;;;;;25.73;7.43;;;;;;;33.42;30.73;96739.16;5103703;28;20504;-86
2023/10/10 10:26:43;;;;;;;21.13;7.18;;;;;;;33.35;31.34;96739.53;5087458;28;20027;-87
2023/10/10 10:29:15;;;;;;;21.67;6.45;;;;;;;33.62;31.50;96743.56;5094446;28;20023;-87
2023/10/10 10:31:49;;;;;;;14.48;6.18;;;;;;;32.99;31.15;96731.81;5094344;28;20027;-87
2023/10/10 10:34:31;;;;;;;18.02;7.75;;;;;;;33.15;31.14;96737.88;5106111;28;20428;-85
2023/10/10 10:37:20;;;;;;;12.63;6.43;;;;;;;32.71;32.09;96738.09;5086530;28;20020;-87
2023/10/10 10:42:37;;;;;;;15.13;5.55;;;;;;;33.00;32.00;96735.34;5111771;28;20030;-84
2023/10/10 10:45:33;;;;;;;16.85;7.78;;;;;;;32.99;31.74;96739.97;5099605;28;20023;-85
2023/10/10 10:47:59;;;;;;;14.57;6.95;;;;;;;33.94;31.25;96734.63;5086372;28;20023;-85
2023/10/10 10:50:40;;;;;;;15.23;9.27;;;;;;;34.03;29.92;96738.31;5093532;28;20023;-82
2023/10/10 10:53:50;;;;;;;19.88;7.07;;;;;;;33.70;31.18;96735.53;5090696;28;20019;-85
2023/10/10 10:59:11;;;;;;;14.00;6.60;;;;;;;33.14;30.98;96727.28;5112537;28;20553;-85
2023/10/10 11:01:45;;;;;;;15.20;7.10;;;;;;;33.17;30.36;96732.97;5108648;28;20039;-85
2023/10/10 11:04:25;;;;;;;13.60;6.47;;;;;;;33.25;31.20;96728.75;5110514;28;20035;-86
2023/10/10 11:06:52;;;;;;;13.27;5.82;;;;;;;33.02;29.94;96730.41;5109642;28;20012;-87
2023/10/10 11:09:28;;;;;;;16.42;6.80;;;;;;;32.85;31.07;96731.66;5097649;28;20086;-86
2023/10/10 11:12:01;;;;;;;16.80;6.60;;;;;;;33.06;30.51;96726.81;5092456;28;20027;-86
2023/10/10 11:14:36;;;;;;;13.73;6.68;;;;;;;33.05;31.27;96717.00;5101965;28;20024;-86
2023/10/10 11:17:02;;;;;;;16.25;6.18;;;;;;;33.98;29.58;96716.53;5113171;28;20036;-86
2023/10/10 11:21:57;;;;;;;17.02;6.53;;;;;;;34.35;30.83;96712.94;5107052;28;20024;-87
2023/10/10 11:24:25;;;;;;;13.48;6.35;;;;;;;34.35;30.75;96712.13;5111075;28;20442;-89
2023/10/10 11:29:47;;;;;;;14.35;6.88;;;;;;;33.93;30.73;96698.31;5104893;28;20401;-87
2023/10/10 11:32:23;;;;;;;15.63;7.60;;;;;;;33.80;30.90;96701.81;5097871;28;20031;-84
2023/10/10 11:34:50;;;;;;;21.67;6.38;;;;;;;34.33;31.03;96698.75;5104259;28;20035;-84
2023/10/10 11:37:20;;;;;;;17.77;6.72;;;;;;;33.30;31.65;96683.19;5079911;28;20470;-84
2023/10/10 11:39:57;;;;;;;19.38;6.82;;;;;;;33.95;31.22;96692.56;5108769;28;20019;-84
2023/10/10 11:42:35;;;;;;;24.30;6.70;;;;;;;33.38;31.49;96684.41;5102969;28;20036;-84
2023/10/10 11:45:06;;;;;;;24.33;6.55;;;;;;;32.80;31.55;96681.91;5108620;28;20107;-84
2023/10/10 11:47:42;;;;;;;23.65;6.95;;;;;;;33.44;31.30;96666.09;5094969;28;20394;-88
2023/10/10 11:50:11;;;;;;;19.38;7.38;;;;;;;33.23;30.95;96666.34;5097397;28;20096;-87
2023/10/10 11:52:53;;;;;;;23.13;6.57;;;;;;;33.86;31.99;96676.06;5119437;28;20522;-88
2023/10/10 11:55:26;;;;;;;19.60;6.93;;;;;;;34.03;31.37;96672.81;5104550;28;20027;-87
2023/10/10 11:57:57;;;;;;;24.88;6.50;;;;;;;32.78;31.66;96667.75;5111682;28;20020;-89
2023/10/10 12:00:29;;;;;;;18.73;6.13;;;;;;;33.97;30.57;96672.06;5118912;28;20111;-89
2023/10/10 12:02:57;;;;;;;19.30;7.00;;;;;;;33.62;31.25;96673.44;5118387;28;20024;-89
2023/10/10 12:08:05;;;;;;;21.42;7.05;;;;;;;34.51;30.15;96664.31;5114896;28;20110;-86
2023/10/10 12:10:52;;;;;;;21.08;7.68;;;;;;;33.66;29.95;96668.22;5098147;28;20024;-87
2023/10/10 12:16:07;;;;;;;13.60;5.93;;;;;;;35.30;28.07;96658.59;5112807;28;20023;-85
2023/10/10 12:18:34;;;;;;;15.65;7.57;;;;;;;35.23;28.49;96658.19;5095044;28;20031;-85
2023/10/10 12:21:04;;;;;;;17.10;6.43;;;;;;;34.94;28.63;96651.16;5086031;28;20023;-85
2023/10/10 12:23:31;;;;;;;13.68;6.07;;;;;;;33.84;28.37;96656.47;5089693;28;20033;-86
2023/10/10 12:25:59;;;;;;;12.80;6.32;;;;;;;33.79;28.59;96654.63;5096194;28;20027;-86
2023/10/10 12:28:32;;;;;;;14.48;6.63;;;;;;;34.68;28.28;96647.34;5092738;28;20417;-87
2023/10/10 12:31:02;;;;;;;15.65;6.80;;;;;;;35.39;27.62;96637.59;5099181;28;20027;-88
2023/10/10 12:33:28;;;;;;;18.00;6.65;;;;;;;34.76;28.50;96630.22;5093045;28;20118;-81
2023/10/10 12:35:56;;;;;;;58.58;38.95;;;;;;;35.01;28.23;96630.78;5114881;28;21538;-84
2023/10/10 12:38:22;;;;;;;44.28;32.05;;;;;;;34.93;28.07;96629.59;5094941;28;20034;-82
2023/10/10 12:40:52;;;;;;;20.77;12.10;;;;;;;35.48;26.79;96637.69;5090955;28;20035;-84
2023/10/10 12:43:24;;;;;;;18.40;6.53;;;;;;;35.51;26.23;96633.50;5111292;28;20073;-82
2023/10/10 12:45:51;;;;;;;16.48;7.55;;;;;;;35.31;27.42;96634.78;5112012;28;20023;-86
2023/10/10 12:48:20;;;;;;;17.60;6.53;;;;;;;35.50;26.13;96626.41;5089137;28;20051;-87
2023/10/10 12:50:52;;;;;;;14.30;6.75;;;;;;;35.52;26.38;96622.28;5109544;28;20301;-85
2023/10/10 12:53:19;;;;;;;;;;;;;;;35.20;26.50;96623.28;5097907;28;20003;-84
2023/10/10 12:56:01;;;;;;;17.08;6.68;;;;;;;35.13;26.48;96620.16;5094383;28;19918;-84
2023/10/10 12:58:27;;;;;;;19.00;6.22;;;;;;;35.05;26.83;96624.44;5094236;28;20053;-86
2023/10/10 13:00:53;;;;;;;18.42;7.80;;;;;;;34.67;27.34;96619.19;5093450;28;20085;-84
2023/10/10 13:03:27;;;;;;;19.42;8.15;;;;;;;34.02;26.33;96620.16;5110037;28;20023;-83
2023/10/10 13:06:00;;;;;;;18.13;8.15;;;;;;;34.25;26.26;96615.63;5109147;28;20028;-85
2023/10/10 13:08:38;;;;;;;16.83;8.65;;;;;;;34.11;26.38;96614.00;5093678;28;20023;-84
2023/10/10 13:11:16;;;;;;;17.50;7.75;;;;;;;34.72;26.05;96615.56;5107099;28;20544;-88
2023/10/10 13:13:52;;;;;;;21.83;7.55;;;;;;;34.07;26.04;96613.78;5093435;28;20031;-85
2023/10/10 13:18:56;;;;;;;32.17;9.07;;;;;;;34.22;27.37;96616.22;5107507;28;20028;-86
2023/10/10 13:21:27;;;;;;;19.40;7.75;;;;;;;34.27;26.25;96612.59;5078825;28;20039;-86
2023/10/10 13:23:53;;;;;;;16.20;8.02;;;;;;;32.29;25.75;96614.38;5103405;28;20050;-86
2023/10/10 13:26:22;;;;;;;14.55;9.45;;;;;;;33.64;26.63;96610.44;5111193;28;20023;-86
2023/10/10 13:28:49;;;;;;;26.42;9.55;;;;;;;32.56;25.82;96611.09;5093998;28;20028;-87
2023/10/10 13:31:16;;;;;;;15.25;8.38;;;;;;;33.00;24.01;96610.00;5089192;28;20034;-87
2023/10/10 13:33:43;;;;;;;21.90;9.73;;;;;;;33.33;25.33;96614.44;5094374;28;20106;-87
2023/10/10 13:36:17;;;;;;;19.67;8.93;;;;;;;33.23;25.93;96605.56;5105713;28;20023;-88
2023/10/10 13:38:48;;;;;;;24.85;10.77;;;;;;;32.87;26.71;96608.81;5091843;28;20476;-88
2023/10/10 13:41:19;;;;;;;23.90;9.75;;;;;;;32.28;26.79;96601.88;5077990;28;20470;-81
2023/10/10 13:43:50;;;;;;;26.05;9.43;;;;;;;33.03;26.34;96595.78;5101746;28;20513;-87
2023/10/10 13:46:18;;;;;;;25.02;10.57;;;;;;;32.87;26.87;96597.91;5100292;28;20023;-85
2023/10/10 13:48:44;;;;;;;28.77;18.65;;;;;;;32.60;26.05;96598.53;5109765;28;20019;-86
2023/10/10 13:51:10;;;;;;;37.95;15.25;;;;;;;32.08;26.45;96598.25;5094383;28;20024;-87
2023/10/10 13:53:40;;;;;;;14.45;8.65;;;;;;;32.13;26.02;96598.22;5084009;28;20043;-86
2023/10/10 13:56:07;;;;;;;23.75;8.70;;;;;;;32.16;27.11;96602.28;5086088;28;20023;-85
2023/10/10 13:58:34;;;;;;;20.23;8.80;;;;;;;32.02;27.21;96596.69;5093847;28;20036;-88
2023/10/10 14:04:15;;;;;;;18.70;8.73;;;;;;;32.39;27.17;96593.31;5102321;28;20085;-84
2023/10/10 14:06:45;;;;;;;28.50;9.10;;;;;;;32.32;26.92;96597.47;5107267;28;20752;-86
2023/10/10 14:09:31;;;;;;;18.63;8.80;;;;;;;32.13;26.12;96594.69;5107212;28;20027;-87
2023/10/10 14:12:02;;;;;;;16.27;8.95;;;;;;;32.44;26.16;96592.47;5092366;28;20389;-84
2023/10/10 14:14:31;;;;;;;18.10;8.40;;;;;;;32.03;27.06;96597.53;5089542;28;20034;-82
2023/10/10 14:16:57;;;;;;;21.70;9.30;;;;;;;32.27;27.13;96592.91;5089421;28;20088;-85
2023/10/10 14:19:24;;;;;;;16.50;8.05;;;;;;;32.23;26.30;96596.47;5105277;28;20537;-84
2023/10/10 14:21:52;;;;;;;14.75;8.50;;;;;;;32.22;26.87;96594.84;5086261;28;20028;-85
2023/10/10 14:24:19;;;;;;;15.07;7.72;;;;;;;32.16;26.75;96597.66;5086533;28;20054;-84
2023/10/10 14:26:44;;;;;;;16.23;7.35;;;;;;;32.04;26.46;96591.78;5087274;28;20500;-84
2023/10/10 14:29:13;;;;;;;14.05;7.53;;;;;;;31.56;26.68;96588.16;5092530;28;20023;-84
2023/10/10 14:31:42;;;;;;;16.67;8.50;;;;;;;32.01;26.94;96591.56;5088703;28;20057;-83
2023/10/10 14:34:19;;;;;;;15.00;8.50;;;;;;;31.85;27.64;96597.09;5087335;28;20023;-82
2023/10/10 14:36:50;;;;;;;14.50;8.07;;;;;;;31.94;27.87;96589.19;5084579;28;20088;-84
2023/10/10 14:39:28;;;;;;;15.48;8.07;;;;;;;31.72;27.99;96589.59;5092480;28;20054;-84
2023/10/10 14:42:00;;;;;;;14.27;8.00;;;;;;;31.48;27.84;96589.56;5088717;28;20030;-84
2023/10/10 14:44:26;;;;;;;26.65;9.73;;;;;;;31.32;28.63;96596.16;5080496;28;20031;-84
2023/10/10 14:47:09;;;;;;;20.75;8.90;;;;;;;31.58;28.65;96583.22;5092805;28;20564;-84
2023/10/10 14:49:38;;;;;;;29.08;9.20;;;;;;;31.68;28.42;96583.94;5099517;28;20030;-84
2023/10/10 14:52:04;;;;;;;33.33;8.60;;;;;;;31.89;28.27;96578.31;5088046;28;20020;-84
2023/10/10 14:54:37;;;;;;;22.55;8.85;;;;;;;31.42;28.27;96585.25;5084369;28;20043;-84
2023/10/10 14:57:04;;;;;;;22.60;8.68;;;;;;;31.59;28.89;96588.38;5108758;28;20634;-84
2023/10/10 14:59:33;;;;;;;20.42;9.50;;;;;;;31.48;29.03;96577.88;5087196;28;20043;-84
2023/10/10 15:02:00;;;;;;;21.90;8.45;;;;;;;31.50;28.87;96586.56;5103053;28;20020;-84